This is the latest recevied weather packets stored in our database for station/object WC4PEM-8. If no packets are shown the sender has not sent any weather packets the latest 10 day(s).
| Time | Temp. | Humidity | Pressure | Rain* | Wind** | Luminosity | Snow |
|---|---|---|---|---|---|---|---|
| 1777646169 | 28.89° C | 64% | 1012.6 hPa | 0 mm | - | - | - |
| 1777646001 | 27.78° C | 70% | 1012.5 hPa | 0 mm | - | - | - |
| 1777645869 | 28.89° C | 66% | 1012.5 hPa | 0 mm | - | - | - |
| 1777645569 | 28.33° C | 67% | 1012.5 hPa | 0 mm | - | - | - |
| 1777645413 | 28.33° C | 67% | 1012.6 hPa | 0 mm | - | - | - |
| 1777645269 | 28.33° C | 67% | 1012.6 hPa | 0 mm | - | - | - |
| 1777644969 | 28.33° C | 66% | 1012.5 hPa | 0 mm | - | - | - |
| 1777644669 | 28.33° C | 70% | 1012.4 hPa | 0 mm | - | - | - |
| 1777644369 | 28.33° C | 69% | 1012.6 hPa | 0 mm | - | - | - |
| 1777644235 | 27.78° C | 70% | 1012.5 hPa | 0 mm | - | - | - |
| 1777644069 | 27.78° C | 70% | 1012.5 hPa | 0 mm | - | - | - |
| 1777643912 | 27.22° C | 72% | 1012.3 hPa | 0 mm | - | - | - |
| 1777643868 | 27.78° C | 72% | 1012.4 hPa | 0 mm | - | - | - |
| 1777643769 | 27.78° C | 72% | 1012.4 hPa | 0 mm | - | - | - |
| 1777643469 | 27.22° C | 72% | 1012.3 hPa | 0 mm | - | - | - |
| 1777643169 | 27.22° C | 74% | 1012.4 hPa | 0 mm | - | - | - |
| 1777642869 | 27.22° C | 73% | 1012.5 hPa | 0 mm | - | - | - |
| 1777642569 | 26.67° C | 77% | 1012.5 hPa | 0 mm | - | - | - |
| 1777642430 | 26.67° C | 81% | 1012.6 hPa | 0 mm | - | - | - |
| 1777642269 | 26.67° C | 81% | 1012.6 hPa | 0 mm | - | - | - |
| 1777641969 | 26.11° C | 81% | 1012.6 hPa | 0 mm | - | - | - |
| 1777641669 | 25.56° C | 82% | 1012.7 hPa | 0 mm | - | - | - |
| 1777641369 | 25.56° C | 84% | 1012.6 hPa | 0 mm | - | - | - |
| 1777641069 | 25.56° C | 85% | 1012.6 hPa | 0 mm | - | - | - |
| 1777640769 | 25° C | 87% | 1012.7 hPa | 0 mm | - | - | - |
* Rain latest hour (hover to see other rain measurements)
** Current wind speed in m/s (hover to see current wind gust speed)